createdAt,value
2022-09-21T00:01:13.298Z,18.30
2022-09-21T00:03:42.462Z,18.30
2022-09-21T00:06:12.151Z,18.20
2022-09-21T00:08:40.460Z,18.10
2022-09-21T00:11:09.479Z,17.70
2022-09-21T00:13:38.017Z,17.40
2022-09-21T00:16:09.381Z,17.30
2022-09-21T00:18:38.288Z,17.20
2022-09-21T00:21:09.276Z,17.20
2022-09-21T00:23:37.843Z,17.30
2022-09-21T00:26:08.037Z,17.30
2022-09-21T00:28:36.524Z,17.40
2022-09-21T00:31:06.265Z,17.40
2022-09-21T00:33:36.328Z,17.40
2022-09-21T00:36:06.079Z,17.40
2022-09-21T00:38:35.056Z,17.40
2022-09-21T00:41:03.304Z,17.40
2022-09-21T00:43:34.526Z,17.40
2022-09-21T00:46:06.328Z,17.40
2022-09-21T00:48:36.089Z,17.40
2022-09-21T00:51:09.094Z,17.50
2022-09-21T00:53:39.617Z,17.50
2022-09-21T00:56:10.525Z,17.50
2022-09-21T00:58:44.948Z,17.40
2022-09-21T01:01:18.098Z,17.40
2022-09-21T01:03:48.734Z,17.50
2022-09-21T01:06:19.815Z,17.40
2022-09-21T01:08:52.804Z,17.50
2022-09-21T01:11:35.356Z,17.40
2022-09-21T01:14:21.704Z,17.50
2022-09-21T01:17:02.468Z,17.40
2022-09-21T01:20:04.417Z,17.40
2022-09-21T01:22:45.485Z,17.40
2022-09-21T01:25:26.873Z,17.40
2022-09-21T01:28:05.572Z,17.40
2022-09-21T01:30:39.075Z,17.40
2022-09-21T01:33:14.809Z,17.40
2022-09-21T01:35:50.183Z,17.30
2022-09-21T01:38:22.159Z,17.40
2022-09-21T01:40:54.116Z,17.30
2022-09-21T01:43:25.845Z,17.30
2022-09-21T01:45:59.617Z,17.30
2022-09-21T01:48:27.828Z,17.30
2022-09-21T01:50:59.105Z,17.20
2022-09-21T01:53:33.518Z,17.20
2022-09-21T01:56:06.738Z,17.20
2022-09-21T01:58:40.630Z,17.20
2022-09-21T02:01:15.484Z,17.20
2022-09-21T02:03:48.595Z,17.20
2022-09-21T02:06:18.290Z,17.20
2022-09-21T02:08:47.168Z,17.10
2022-09-21T02:11:15.373Z,17.00
2022-09-21T02:13:46.608Z,17.00
2022-09-21T02:16:35.658Z,17.00
2022-09-21T02:19:12.888Z,17.00
2022-09-21T02:22:05.164Z,17.00
2022-09-21T02:24:42.263Z,17.00
2022-09-21T02:27:19.873Z,16.90
2022-09-21T02:29:54.051Z,16.90
2022-09-21T02:32:30.396Z,16.90
2022-09-21T02:35:04.547Z,16.80
2022-09-21T02:37:38.254Z,16.80
2022-09-21T02:40:23.109Z,16.70
2022-09-21T02:42:55.329Z,16.60
2022-09-21T02:45:26.303Z,16.60
2022-09-21T02:48:03.029Z,16.50
2022-09-21T02:50:36.877Z,16.50
2022-09-21T02:53:07.127Z,16.50
2022-09-21T02:55:36.012Z,16.40
2022-09-21T02:58:07.656Z,16.40
2022-09-21T03:00:37.280Z,16.40
2022-09-21T03:03:18.311Z,16.40
2022-09-21T03:05:48.842Z,16.40
2022-09-21T03:08:17.190Z,16.40
2022-09-21T03:10:46.819Z,16.30
2022-09-21T03:13:15.232Z,16.30
2022-09-21T03:15:43.933Z,16.30
2022-09-21T03:18:12.741Z,16.30
2022-09-21T03:20:46.612Z,16.30
2022-09-21T03:23:15.621Z,16.30
2022-09-21T03:25:45.746Z,16.20
2022-09-21T03:28:14.589Z,16.20
2022-09-21T03:30:43.817Z,16.10
2022-09-21T03:33:12.924Z,16.10
2022-09-21T03:35:42.721Z,16.10
2022-09-21T03:38:11.189Z,16.10
2022-09-21T03:40:39.446Z,16.10
2022-09-21T03:43:07.946Z,16.10
2022-09-21T03:45:36.158Z,16.10
2022-09-21T03:48:04.528Z,16.10
2022-09-21T03:50:32.675Z,16.10
2022-09-21T03:53:02.204Z,16.10
2022-09-21T03:55:31.687Z,16.10
2022-09-21T03:58:00.208Z,16.10
2022-09-21T04:00:28.532Z,16.10
2022-09-21T04:02:57.428Z,16.10
2022-09-21T04:05:25.890Z,16.10
2022-09-21T04:07:56.602Z,16.00
2022-09-21T04:10:33.441Z,16.10
2022-09-21T04:13:02.646Z,16.10
2022-09-21T04:15:31.353Z,16.00
2022-09-21T04:17:59.653Z,16.00
2022-09-21T04:20:27.836Z,16.00
2022-09-21T04:22:56.034Z,16.00
2022-09-21T04:25:25.864Z,16.00
2022-09-21T04:27:54.474Z,16.00
2022-09-21T04:30:22.606Z,16.00
2022-09-21T04:32:51.407Z,16.00
2022-09-21T04:35:19.598Z,16.00
2022-09-21T04:37:47.771Z,15.90
2022-09-21T04:40:16.077Z,15.90
2022-09-21T04:42:45.610Z,15.80
2022-09-21T04:45:13.773Z,15.80
2022-09-21T04:47:41.910Z,15.80
2022-09-21T04:50:10.870Z,15.70
2022-09-21T04:52:39.795Z,15.70
2022-09-21T04:55:08.922Z,15.60
2022-09-21T04:57:37.072Z,15.60
2022-09-21T05:00:07.730Z,15.50
2022-09-21T05:02:35.865Z,15.50
2022-09-21T05:05:04.091Z,15.40
2022-09-21T05:07:32.309Z,15.30
2022-09-21T05:10:05.185Z,15.30
2022-09-21T05:12:34.398Z,15.20
2022-09-21T05:15:03.205Z,15.10
2022-09-21T05:17:32.827Z,15.20
2022-09-21T05:20:01.027Z,15.20
2022-09-21T05:22:29.699Z,15.10
2022-09-21T05:24:57.798Z,15.10
2022-09-21T05:27:25.996Z,14.90
2022-09-21T05:29:54.747Z,14.90
2022-09-21T05:32:29.070Z,14.90
2022-09-21T05:35:08.616Z,14.90
2022-09-21T05:37:51.601Z,14.90
2022-09-21T05:40:20.634Z,15.00
2022-09-21T05:42:49.418Z,15.00
2022-09-21T05:45:19.355Z,15.00
2022-09-21T05:47:59.555Z,15.00
2022-09-21T05:50:41.877Z,15.00
2022-09-21T05:53:31.049Z,15.00
2022-09-21T05:56:01.796Z,15.10
2022-09-21T05:58:38.090Z,15.10
2022-09-21T06:01:22.056Z,15.10
2022-09-21T06:03:50.835Z,15.20
2022-09-21T06:06:20.945Z,15.10
2022-09-21T06:08:49.155Z,15.20
2022-09-21T06:11:17.636Z,15.20
2022-09-21T06:13:46.030Z,15.20
2022-09-21T06:16:14.206Z,15.20
2022-09-21T06:18:43.480Z,15.20
2022-09-21T06:21:11.881Z,15.20
2022-09-21T06:23:41.623Z,15.20
2022-09-21T06:26:09.750Z,15.20
2022-09-21T06:28:37.928Z,15.20
2022-09-21T06:31:06.371Z,15.20
2022-09-21T06:33:36.042Z,15.20
2022-09-21T06:36:04.385Z,15.30
2022-09-21T06:38:32.603Z,15.20
2022-09-21T06:41:05.340Z,15.20
2022-09-21T06:43:33.646Z,15.20
2022-09-21T06:46:03.295Z,15.20
2022-09-21T06:48:33.467Z,15.30
2022-09-21T06:51:02.457Z,15.30
2022-09-21T06:53:31.758Z,15.20
2022-09-21T06:56:05.391Z,15.30
2022-09-21T06:58:34.652Z,15.30
2022-09-21T07:01:09.876Z,15.30
2022-09-21T07:03:38.835Z,15.40
2022-09-21T07:06:08.395Z,15.40
2022-09-21T07:11:27.487Z,15.40
2022-09-21T07:13:56.087Z,15.40
2022-09-21T07:16:24.499Z,15.40
2022-09-21T07:18:52.733Z,15.40
2022-09-21T07:21:20.905Z,15.40
2022-09-21T07:23:49.098Z,15.40
2022-09-21T07:26:17.291Z,15.40
2022-09-21T07:28:46.881Z,15.50
2022-09-21T07:31:16.873Z,15.50
2022-09-21T07:33:47.161Z,15.50
2022-09-21T07:36:16.592Z,15.50
2022-09-21T07:38:45.971Z,15.50
2022-09-21T07:41:15.355Z,15.50
2022-09-21T07:43:43.787Z,15.40
2022-09-21T07:46:15.585Z,15.40
2022-09-21T07:48:44.001Z,15.40
2022-09-21T07:51:13.787Z,15.50
2022-09-21T07:53:44.434Z,15.50
2022-09-21T07:56:14.127Z,15.50
2022-09-21T07:59:00.339Z,15.50
2022-09-21T08:01:31.077Z,15.60
2022-09-21T08:03:59.992Z,15.60
2022-09-21T08:06:30.463Z,15.60
2022-09-21T08:08:58.702Z,15.70
2022-09-21T08:11:29.976Z,15.70
2022-09-21T08:14:00.055Z,15.60
2022-09-21T08:16:30.736Z,15.70
2022-09-21T08:18:59.812Z,15.60
2022-09-21T08:21:28.427Z,15.70
2022-09-21T08:23:56.609Z,15.70
2022-09-21T08:26:24.849Z,15.70
2022-09-21T08:28:56.558Z,15.80
2022-09-21T08:31:26.939Z,15.90
2022-09-21T08:33:57.751Z,15.90
2022-09-21T08:36:26.232Z,15.90
2022-09-21T08:38:56.696Z,15.90
2022-09-21T08:41:43.331Z,16.00
2022-09-21T08:44:16.507Z,16.10
2022-09-21T08:46:45.982Z,16.10
2022-09-21T08:49:19.387Z,16.20
2022-09-21T08:51:53.591Z,16.20
2022-09-21T08:54:30.270Z,16.20
2022-09-21T08:57:05.320Z,16.20
2022-09-21T08:59:35.738Z,16.20
2022-09-21T09:02:14.632Z,16.20
2022-09-21T09:04:55.148Z,16.30
2022-09-21T09:07:38.896Z,16.30
2022-09-21T09:10:28.995Z,16.30
2022-09-21T09:13:08.495Z,16.30
2022-09-21T09:15:50.962Z,16.40
2022-09-21T09:18:25.201Z,16.40
2022-09-21T09:20:59.360Z,16.40
2022-09-21T09:23:29.966Z,16.50
2022-09-21T09:26:01.761Z,16.50
2022-09-21T09:28:34.200Z,16.60
2022-09-21T09:31:07.902Z,16.60
2022-09-21T09:33:50.998Z,16.70
2022-09-21T09:36:40.230Z,16.70
2022-09-21T09:39:13.680Z,16.70
2022-09-21T09:41:59.348Z,16.80
2022-09-21T09:45:04.308Z,16.90
2022-09-21T09:47:45.609Z,17.00
2022-09-21T09:50:19.690Z,17.00
2022-09-21T09:52:54.405Z,17.10
2022-09-21T09:55:25.917Z,17.10
2022-09-21T09:57:56.811Z,17.10
2022-09-21T10:00:25.031Z,17.10
2022-09-21T10:02:55.168Z,17.10
2022-09-21T10:05:25.676Z,17.20
2022-09-21T10:07:55.344Z,17.20
2022-09-21T10:10:31.006Z,17.20
2022-09-21T10:13:06.597Z,17.20
2022-09-21T10:15:35.065Z,17.20
2022-09-21T10:18:08.590Z,17.30
2022-09-21T10:20:36.846Z,17.30
2022-09-21T10:23:06.745Z,17.40
2022-09-21T10:25:40.033Z,17.50
2022-09-21T10:28:12.583Z,17.60
2022-09-21T10:30:41.395Z,17.60
2022-09-21T10:33:21.346Z,17.70
2022-09-21T10:35:54.557Z,17.90
2022-09-21T10:38:28.598Z,17.90
2022-09-21T10:40:57.043Z,17.90
2022-09-21T10:43:31.887Z,17.90
2022-09-21T10:46:03.129Z,17.80
2022-09-21T10:48:31.603Z,17.90
2022-09-21T10:51:00.100Z,18.00
2022-09-21T10:53:31.944Z,18.10
2022-09-21T10:56:19.056Z,18.20
2022-09-21T10:59:12.188Z,18.20
2022-09-21T11:01:45.923Z,18.30
2022-09-21T11:04:19.431Z,18.30
2022-09-21T11:06:51.768Z,18.40
2022-09-21T11:09:27.994Z,18.40
2022-09-21T11:12:04.170Z,18.40
2022-09-21T11:14:44.530Z,18.40
2022-09-21T11:17:21.373Z,18.30
2022-09-21T11:19:54.188Z,18.30
2022-09-21T11:22:31.973Z,18.40
2022-09-21T11:25:11.631Z,18.50
2022-09-21T11:27:43.044Z,18.60
2022-09-21T11:30:13.898Z,18.60
2022-09-21T11:32:59.747Z,18.50
2022-09-21T11:35:44.876Z,18.60
2022-09-21T11:38:20.535Z,18.60
2022-09-21T11:41:05.840Z,18.60
2022-09-21T11:43:50.755Z,18.60
2022-09-21T11:46:25.999Z,18.60
2022-09-21T11:49:08.200Z,18.60
2022-09-21T11:51:55.958Z,18.70
2022-09-21T11:54:43.553Z,18.70
2022-09-21T11:57:19.571Z,18.70
2022-09-21T12:00:05.420Z,18.80
2022-09-21T12:03:08.240Z,18.80
2022-09-21T12:05:43.440Z,18.90
2022-09-21T12:08:30.627Z,18.90
2022-09-21T12:11:07.642Z,18.90
2022-09-21T12:13:44.562Z,18.90
2022-09-21T12:16:18.121Z,18.90
2022-09-21T12:18:55.478Z,19.00
2022-09-21T12:21:26.833Z,19.00
2022-09-21T12:23:58.141Z,19.00
2022-09-21T12:26:30.759Z,19.10
2022-09-21T12:29:04.012Z,19.10
2022-09-21T12:31:38.153Z,19.20
2022-09-21T12:34:12.544Z,19.20
2022-09-21T12:36:46.017Z,19.10
2022-09-21T12:39:20.693Z,19.10
2022-09-21T12:41:55.515Z,19.10
2022-09-21T12:44:34.152Z,19.20
2022-09-21T12:47:10.293Z,19.20
2022-09-21T12:49:50.337Z,19.30
2022-09-21T12:52:24.390Z,19.20
2022-09-21T12:55:00.116Z,19.20
2022-09-21T12:57:58.842Z,19.20
2022-09-21T13:00:33.571Z,19.30
2022-09-21T13:03:11.391Z,19.30
2022-09-21T13:05:46.570Z,19.20
2022-09-21T13:08:17.534Z,19.20
2022-09-21T13:10:54.863Z,19.30
2022-09-21T13:13:30.844Z,19.40
2022-09-21T13:16:01.480Z,19.30
2022-09-21T13:18:36.215Z,19.30
2022-09-21T13:21:18.637Z,19.30
2022-09-21T13:23:56.156Z,19.40
2022-09-21T13:26:34.720Z,19.40
2022-09-21T13:29:22.371Z,19.40
2022-09-21T13:31:58.647Z,19.50
2022-09-21T13:34:32.970Z,19.50
2022-09-21T13:37:29.073Z,19.40
2022-09-21T13:40:42.443Z,19.50
2022-09-21T13:43:58.541Z,19.50
2022-09-21T13:46:59.217Z,19.60
2022-09-21T13:49:43.606Z,19.60
2022-09-21T13:52:27.458Z,19.50
2022-09-21T13:54:59.219Z,19.50
2022-09-21T13:57:33.326Z,19.40
2022-09-21T14:00:30.854Z,19.50
2022-09-21T14:03:04.473Z,19.60
2022-09-21T14:05:37.043Z,19.60
2022-09-21T14:08:08.756Z,19.60
2022-09-21T14:10:39.215Z,19.70
2022-09-21T14:13:25.143Z,19.70
2022-09-21T14:15:53.443Z,19.80
2022-09-21T14:18:37.144Z,19.80
2022-09-21T14:21:19.324Z,19.90
2022-09-21T14:24:20.281Z,19.90
2022-09-21T14:27:01.274Z,20.00
2022-09-21T14:29:38.519Z,19.90
2022-09-21T14:32:12.815Z,19.90
2022-09-21T14:34:46.363Z,20.00
2022-09-21T14:37:33.899Z,20.00
2022-09-21T14:40:05.920Z,20.00
2022-09-21T14:42:34.531Z,20.00
2022-09-21T14:45:04.165Z,20.00
2022-09-21T14:47:51.748Z,20.00
2022-09-21T14:50:36.167Z,20.00
2022-09-21T14:53:28.213Z,19.90
2022-09-21T14:56:30.402Z,19.90
2022-09-21T14:59:15.665Z,19.90
2022-09-21T15:01:58.851Z,20.00
2022-09-21T15:04:33.064Z,20.10
2022-09-21T15:07:33.363Z,20.00
2022-09-21T15:10:40.942Z,20.00
2022-09-21T15:13:20.401Z,19.90
2022-09-21T15:15:59.919Z,19.80
2022-09-21T15:18:28.175Z,19.80
2022-09-21T15:21:01.266Z,19.70
2022-09-21T15:23:33.551Z,19.70
2022-09-21T15:26:05.188Z,19.70
2022-09-21T15:29:04.938Z,19.70
2022-09-21T15:31:32.602Z,19.70
2022-09-21T15:34:02.283Z,19.70
2022-09-21T15:36:31.794Z,19.60
2022-09-21T15:39:01.615Z,19.60
2022-09-21T15:41:42.816Z,19.60
2022-09-21T15:44:16.549Z,19.70
2022-09-21T15:46:48.147Z,19.80
2022-09-21T15:49:22.067Z,19.70
2022-09-21T15:51:53.491Z,19.70
2022-09-21T15:54:32.993Z,19.70
2022-09-21T15:57:07.897Z,19.70
2022-09-21T15:59:36.790Z,19.70
2022-09-21T16:02:17.261Z,19.70
2022-09-21T16:04:50.972Z,19.80
2022-09-21T16:07:32.305Z,19.80
2022-09-21T16:10:03.313Z,19.70
2022-09-21T16:12:42.636Z,19.70
2022-09-21T16:15:19.452Z,19.60
2022-09-21T16:18:01.441Z,19.60
2022-09-21T16:20:45.779Z,19.60
2022-09-21T16:23:17.394Z,19.50
2022-09-21T16:25:55.101Z,19.40
2022-09-21T16:28:30.783Z,19.40
2022-09-21T16:30:59.353Z,19.30
2022-09-21T16:33:44.437Z,19.30
2022-09-21T16:36:47.069Z,19.30
2022-09-21T16:39:18.270Z,19.20
2022-09-21T16:41:58.299Z,19.20
2022-09-21T16:44:28.083Z,19.20
2022-09-21T16:46:59.217Z,19.20
2022-09-21T16:49:30.615Z,19.20
2022-09-21T16:51:59.758Z,19.10
2022-09-21T16:54:28.657Z,19.10
2022-09-21T16:57:01.262Z,19.10
2022-09-21T16:59:30.138Z,19.10
2022-09-21T17:02:00.474Z,19.00
2022-09-21T17:04:30.362Z,19.10
2022-09-21T17:06:58.919Z,19.00
2022-09-21T17:09:31.286Z,19.00
2022-09-21T17:12:04.519Z,19.00
2022-09-21T17:14:35.429Z,19.10
2022-09-21T17:17:08.521Z,19.00
2022-09-21T17:19:37.018Z,19.00
2022-09-21T17:22:07.118Z,19.00
2022-09-21T17:24:50.264Z,19.10
2022-09-21T17:27:23.347Z,19.00
2022-09-21T17:29:53.921Z,19.10
2022-09-21T17:32:23.653Z,19.10
2022-09-21T17:34:58.949Z,19.10
2022-09-21T17:37:27.356Z,19.10
2022-09-21T17:39:55.574Z,19.10
2022-09-21T17:42:26.011Z,19.10
2022-09-21T17:45:14.616Z,19.10
2022-09-21T17:47:43.394Z,19.10
2022-09-21T17:50:23.234Z,19.10
2022-09-21T17:53:09.269Z,19.10
2022-09-21T17:55:38.547Z,19.10
2022-09-21T17:58:19.967Z,19.00
2022-09-21T18:00:56.104Z,19.00
2022-09-21T18:03:27.740Z,19.00
2022-09-21T18:06:00.862Z,18.90
2022-09-21T18:08:30.056Z,18.90
2022-09-21T18:11:13.702Z,18.80
2022-09-21T18:13:55.327Z,18.80
2022-09-21T18:16:36.312Z,18.70
2022-09-21T18:19:23.488Z,18.70
2022-09-21T18:21:58.133Z,18.60
2022-09-21T18:24:31.177Z,18.60
2022-09-21T18:27:00.850Z,18.60
2022-09-21T18:29:40.034Z,18.60
2022-09-21T18:32:28.389Z,18.70
2022-09-21T18:35:12.953Z,18.70
2022-09-21T18:37:56.346Z,18.70
2022-09-21T18:40:29.980Z,18.70
2022-09-21T18:43:06.237Z,18.60
2022-09-21T18:45:41.970Z,18.60
2022-09-21T18:48:29.571Z,18.60
2022-09-21T18:51:07.158Z,18.60
2022-09-21T18:53:45.219Z,18.60
2022-09-21T18:56:14.355Z,18.60
2022-09-21T18:58:43.821Z,18.60
2022-09-21T19:01:15.369Z,18.60
2022-09-21T19:03:44.070Z,18.60
2022-09-21T19:06:25.462Z,18.50
2022-09-21T19:09:01.768Z,18.50
2022-09-21T19:11:38.172Z,18.50
2022-09-21T19:14:16.216Z,18.50
2022-09-21T19:16:55.637Z,18.50
2022-09-21T19:19:37.035Z,18.50
2022-09-21T19:22:14.876Z,18.50
2022-09-21T19:24:55.406Z,18.50
2022-09-21T19:27:29.273Z,18.40
2022-09-21T19:30:04.586Z,18.40
2022-09-21T19:32:43.964Z,18.40
2022-09-21T19:35:23.220Z,18.30
2022-09-21T19:37:54.105Z,18.30
2022-09-21T19:40:24.841Z,18.30
2022-09-21T19:43:28.429Z,18.20
2022-09-21T19:46:09.985Z,18.20
2022-09-21T19:48:44.273Z,18.20
2022-09-21T19:51:20.425Z,18.20
2022-09-21T19:54:13.733Z,18.10
2022-09-21T19:57:20.034Z,18.10
2022-09-21T19:59:51.058Z,18.10
2022-09-21T20:02:28.106Z,18.00
2022-09-21T20:05:01.656Z,18.00
2022-09-21T20:07:44.486Z,17.90
2022-09-21T20:10:34.244Z,18.00
2022-09-21T20:13:15.168Z,17.90
2022-09-21T20:15:49.295Z,17.90
2022-09-21T20:18:27.237Z,17.90
2022-09-21T20:20:57.464Z,17.90
2022-09-21T20:23:26.077Z,17.80
2022-09-21T20:25:59.932Z,17.80
2022-09-21T20:28:28.838Z,17.80
2022-09-21T20:30:57.358Z,17.70
2022-09-21T20:33:26.998Z,17.70
2022-09-21T20:35:56.536Z,17.70
2022-09-21T20:38:24.890Z,17.70
2022-09-21T20:40:54.111Z,17.60
2022-09-21T20:43:23.157Z,17.60
2022-09-21T20:45:51.804Z,17.60
2022-09-21T20:48:20.048Z,17.50
2022-09-21T20:50:50.429Z,17.50
2022-09-21T20:53:20.321Z,17.40
2022-09-21T20:55:55.117Z,17.40
2022-09-21T20:58:24.410Z,17.40
2022-09-21T21:00:57.966Z,17.40
2022-09-21T21:03:27.079Z,17.40
2022-09-21T21:05:55.290Z,17.30
2022-09-21T21:08:25.055Z,17.30
2022-09-21T21:10:56.621Z,17.30
2022-09-21T21:13:24.958Z,17.20
2022-09-21T21:15:54.659Z,17.20
2022-09-21T21:18:23.173Z,17.20
2022-09-21T21:20:52.332Z,17.10
2022-09-21T21:23:20.716Z,17.10
2022-09-21T21:25:50.307Z,17.10
2022-09-21T21:28:18.541Z,17.00
2022-09-21T21:30:46.710Z,17.00
2022-09-21T21:33:14.958Z,17.00
2022-09-21T21:35:43.090Z,17.00
2022-09-21T21:38:13.489Z,16.90
2022-09-21T21:40:41.752Z,16.90
2022-09-21T21:43:12.223Z,16.90
2022-09-21T21:45:40.704Z,16.90
2022-09-21T21:48:10.043Z,16.80
2022-09-21T21:50:39.204Z,16.80
2022-09-21T21:53:07.683Z,16.80
2022-09-21T21:55:35.946Z,16.70
2022-09-21T21:58:04.023Z,16.70
2022-09-21T22:00:33.510Z,16.70
2022-09-21T22:03:02.580Z,16.70
2022-09-21T22:05:30.766Z,16.70
2022-09-21T22:07:58.955Z,16.70
2022-09-21T22:10:27.848Z,16.60
2022-09-21T22:12:57.740Z,16.60
2022-09-21T22:15:26.152Z,16.60
2022-09-21T22:17:55.823Z,16.60
2022-09-21T22:20:24.079Z,16.60
2022-09-21T22:22:52.294Z,16.60
2022-09-21T22:25:20.391Z,16.50
2022-09-21T22:27:48.762Z,16.50
2022-09-21T22:30:17.093Z,16.50
2022-09-21T22:32:45.222Z,16.50
2022-09-21T22:35:14.906Z,16.40
2022-09-21T22:37:42.985Z,16.40
2022-09-21T22:40:12.205Z,16.40
2022-09-21T22:42:40.417Z,16.40
2022-09-21T22:45:09.204Z,16.40
2022-09-21T22:47:37.326Z,16.40
2022-09-21T22:50:06.325Z,16.30
2022-09-21T22:52:36.078Z,16.30
2022-09-21T22:55:04.549Z,16.30
2022-09-21T22:57:32.660Z,16.30
2022-09-21T23:00:00.880Z,16.30
2022-09-21T23:02:29.020Z,16.30
2022-09-21T23:04:57.223Z,16.30
2022-09-21T23:07:25.452Z,16.30
2022-09-21T23:09:55.090Z,16.20
2022-09-21T23:12:23.315Z,16.20
2022-09-21T23:14:51.477Z,16.20
2022-09-21T23:17:19.598Z,16.20
2022-09-21T23:19:47.954Z,16.20
2022-09-21T23:22:16.190Z,16.10
2022-09-21T23:24:44.393Z,16.10
2022-09-21T23:27:13.883Z,16.10
2022-09-21T23:29:42.039Z,16.10
2022-09-21T23:32:10.260Z,16.10
2022-09-21T23:34:38.459Z,16.10
2022-09-21T23:37:06.614Z,16.10
2022-09-21T23:39:34.807Z,16.10
2022-09-21T23:42:02.944Z,16.00
2022-09-21T23:44:32.746Z,16.00
2022-09-21T23:47:01.041Z,16.00
2022-09-21T23:49:29.252Z,16.00
2022-09-21T23:51:57.442Z,16.00
2022-09-21T23:54:25.768Z,16.00
2022-09-21T23:56:53.944Z,16.00
2022-09-21T23:59:22.179Z,15.90
